Time;durP1;ratioP1;P1;durP2;ratioP2;P2;SDS_P1;SDS_P2;PMS_P1;PMS_P2;Temp;Humidity;BMP_temperature;BMP_pressure;BME280_temperature;BME280_humidity;BME280_pressure;Samples;Min_cycle;Max_cycle;Signal;HPM_P1;HPM_P2
2020/12/29 00:02:25;;;;;;;38.00;22.77;;;;;;;1.26;100.00;97572.41;4898094;29;20048;-48
2020/12/29 00:04:51;;;;;;;36.92;22.30;;;;;;;1.34;100.00;97571.63;4900330;29;20053;-49
2020/12/29 00:07:17;;;;;;;37.95;21.10;;;;;;;1.23;100.00;97572.34;4898883;29;20129;-47
2020/12/29 00:09:44;;;;;;;37.22;21.80;;;;;;;1.42;100.00;97570.06;4899364;29;20052;-45
2020/12/29 00:12:10;;;;;;;35.20;21.73;;;;;;;1.28;100.00;97564.84;4900110;29;20048;-45
2020/12/29 00:14:37;;;;;;;36.70;21.58;;;;;;;1.33;100.00;97562.38;4898002;29;20048;-51
2020/12/29 00:17:03;;;;;;;34.30;19.98;;;;;;;1.34;100.00;97554.00;4901321;29;20503;-47
2020/12/29 00:19:30;;;;;;;31.52;20.83;;;;;;;1.25;100.00;97553.06;4898056;29;20100;-51
2020/12/29 00:21:56;;;;;;;38.13;21.77;;;;;;;1.29;100.00;97551.41;4901628;29;20056;-48
2020/12/29 00:24:23;;;;;;;35.13;20.85;;;;;;;1.30;100.00;97547.25;4898227;29;20064;-46
2020/12/29 00:27:03;;;;;;;38.28;22.65;;;;;;;1.31;100.00;97538.84;4899397;29;20075;-47
2020/12/29 00:29:30;;;;;;;35.83;21.20;;;;;;;1.19;100.00;97539.53;4898019;29;20056;-44
2020/12/29 00:32:02;;;;;;;36.45;22.17;;;;;;;1.28;100.00;97532.09;4899531;29;20044;-49
2020/12/29 00:34:28;;;;;;;36.08;22.05;;;;;;;1.15;100.00;97525.22;4898055;29;20471;-48
2020/12/29 00:36:55;;;;;;;38.08;22.48;;;;;;;1.11;100.00;97526.88;4901201;29;20131;-46
2020/12/29 00:39:21;;;;;;;36.00;23.40;;;;;;;1.09;100.00;97527.66;4898534;29;20119;-51
2020/12/29 00:41:47;;;;;;;39.58;24.42;;;;;;;1.07;100.00;97516.75;4899920;29;20108;-47
2020/12/29 00:44:14;;;;;;;40.95;24.45;;;;;;;0.98;100.00;97533.44;4899879;29;20573;-46
2020/12/29 00:46:40;;;;;;;39.33;22.95;;;;;;;1.27;100.00;97543.84;4898823;29;20142;-44
2020/12/29 00:49:06;;;;;;;36.30;21.23;;;;;;;1.59;100.00;97548.41;4900724;29;20746;-45
2020/12/29 00:51:33;;;;;;;34.22;21.33;;;;;;;1.37;100.00;97546.47;4898099;29;20075;-49
2020/12/29 00:53:59;;;;;;;34.60;21.95;;;;;;;1.20;100.00;97548.78;4901463;29;20455;-46
2020/12/29 00:56:26;;;;;;;41.17;24.60;;;;;;;0.97;100.00;97554.41;4897508;29;20101;-44
2020/12/29 00:58:52;;;;;;;40.63;24.63;;;;;;;1.05;100.00;97562.06;4900159;29;20087;-49
2020/12/29 01:01:18;;;;;;;45.35;24.00;;;;;;;1.01;100.00;97570.38;4898871;29;20574;-49
2020/12/29 01:03:45;;;;;;;42.13;24.73;;;;;;;0.97;100.00;97578.72;4899396;29;20057;-50
2020/12/29 01:06:12;;;;;;;40.22;23.45;;;;;;;1.20;100.00;97592.50;4899988;29;20051;-45
2020/12/29 01:08:39;;;;;;;36.05;22.88;;;;;;;1.71;100.00;97593.94;4898339;29;20453;-50
2020/12/29 01:11:05;;;;;;;38.60;23.35;;;;;;;1.54;100.00;97597.94;4900907;29;20819;-51
2020/12/29 01:13:51;;;;;;;42.78;23.17;;;;;;;1.17;100.00;97601.69;4899892;29;20148;-48
2020/12/29 01:16:17;;;;;;;42.53;23.85;;;;;;;1.14;100.00;97610.03;4899674;29;20059;-46
2020/12/29 01:18:44;;;;;;;42.92;24.25;;;;;;;1.17;100.00;97610.09;4902757;29;20447;-49
2020/12/29 01:21:11;;;;;;;38.85;23.52;;;;;;;1.16;100.00;97605.88;4903129;29;20134;-47
2020/12/29 01:23:37;;;;;;;34.58;21.35;;;;;;;1.65;100.00;97605.59;4901655;29;20599;-49
2020/12/29 01:26:07;;;;;;;37.47;23.60;;;;;;;1.37;100.00;97620.41;4904450;29;20060;-47
2020/12/29 01:28:36;;;;;;;38.22;23.00;;;;;;;1.51;100.00;97615.53;4901028;29;20159;-47
2020/12/29 01:31:03;;;;;;;34.72;21.42;;;;;;;1.37;100.00;97620.41;4904091;29;20044;-48
2020/12/29 01:33:30;;;;;;;36.58;21.42;;;;;;;1.66;100.00;97618.22;4900797;29;20045;-48
2020/12/29 01:35:56;;;;;;;33.65;21.05;;;;;;;1.43;100.00;97612.94;4904257;29;20063;-49
2020/12/29 01:38:23;;;;;;;36.50;22.67;;;;;;;1.22;100.00;97618.53;4892236;29;20081;-45
2020/12/29 01:40:49;;;;;;;35.90;21.02;;;;;;;1.86;100.00;97612.56;4902618;29;20108;-47
2020/12/29 01:43:15;;;;;;;36.47;23.90;;;;;;;1.40;100.00;97610.38;4902283;29;20047;-50
2020/12/29 01:45:42;;;;;;;33.53;21.48;;;;;;;1.88;100.00;97604.16;4901773;29;20459;-48
2020/12/29 01:48:08;;;;;;;39.33;22.38;;;;;;;1.86;99.90;97598.28;4902944;29;20052;-50
2020/12/29 01:50:35;;;;;;;32.83;20.25;;;;;;;1.79;100.00;97602.41;4901093;29;20667;-51
2020/12/29 01:53:02;;;;;;;35.78;21.17;;;;;;;2.39;97.03;97592.84;4903825;29;20059;-49
2020/12/29 01:55:30;;;;;;;35.30;21.48;;;;;;;1.99;97.95;97586.63;4900240;29;20104;-50
2020/12/29 01:58:00;;;;;;;33.50;20.95;;;;;;;2.16;97.68;97591.81;4901320;29;20115;-50
2020/12/29 02:00:27;;;;;;;35.90;22.17;;;;;;;2.30;96.98;97586.03;4900397;29;20052;-46
2020/12/29 02:02:56;;;;;;;33.45;21.35;;;;;;;2.40;96.38;97588.63;4903014;29;20048;-52
2020/12/29 02:05:23;;;;;;;32.53;20.83;;;;;;;1.94;97.89;97580.66;4900408;29;20048;-49
2020/12/29 02:07:51;;;;;;;35.38;20.85;;;;;;;2.05;97.56;97586.69;4902134;29;20092;-48
2020/12/29 02:10:17;;;;;;;34.03;21.33;;;;;;;1.75;99.28;97584.69;4900190;29;20055;-49
2020/12/29 02:12:44;;;;;;;38.20;21.60;;;;;;;1.64;99.71;97574.50;4901448;29;20523;-50
2020/12/29 02:15:10;;;;;;;36.28;20.67;;;;;;;2.25;98.82;97570.03;4902614;29;20048;-49
2020/12/29 02:17:37;;;;;;;36.38;22.48;;;;;;;1.61;99.24;97564.38;4900733;29;20076;-50
2020/12/29 02:20:05;;;;;;;36.65;21.60;;;;;;;1.40;100.00;97570.03;4904337;29;20048;-49
2020/12/29 02:22:32;;;;;;;40.13;23.25;;;;;;;1.45;100.00;97567.56;4900827;29;20076;-49
2020/12/29 02:25:00;;;;;;;39.65;21.75;;;;;;;1.40;100.00;97576.75;4903886;29;20486;-49
2020/12/29 02:27:30;;;;;;;37.38;22.40;;;;;;;1.28;100.00;97580.81;4898836;29;20052;-47
2020/12/29 02:29:57;;;;;;;44.45;24.10;;;;;;;1.25;100.00;97583.31;4903101;29;20052;-46
2020/12/29 02:32:24;;;;;;;40.42;23.65;;;;;;;1.11;100.00;97582.31;4901237;29;20100;-44
2020/12/29 02:34:51;;;;;;;36.75;22.10;;;;;;;1.48;100.00;97582.75;4902009;29;20085;-46
2020/12/29 02:37:19;;;;;;;46.15;22.67;;;;;;;1.09;100.00;97583.94;4900817;29;20047;-45
2020/12/29 02:39:50;;;;;;;40.28;22.92;;;;;;;1.24;100.00;97589.16;4901161;29;20104;-49
2020/12/29 02:42:16;;;;;;;38.78;22.83;;;;;;;1.31;100.00;97594.28;4899464;29;20054;-48
2020/12/29 02:44:43;;;;;;;36.70;22.00;;;;;;;1.24;100.00;97574.03;4900757;29;20606;-45
2020/12/29 02:47:09;;;;;;;37.35;21.30;;;;;;;1.12;100.00;97578.09;4902086;29;20055;-45
2020/12/29 02:49:35;;;;;;;38.85;22.95;;;;;;;0.85;100.00;97569.34;4900323;29;20052;-50
2020/12/29 02:52:06;;;;;;;42.67;24.30;;;;;;;0.71;100.00;97554.06;4903056;29;20044;-51
2020/12/29 02:54:33;;;;;;;41.45;23.33;;;;;;;1.23;100.00;97571.50;4899493;29;20423;-48
2020/12/29 02:57:00;;;;;;;39.45;22.77;;;;;;;1.49;100.00;97572.66;4902917;29;20048;-46
2020/12/29 02:59:26;;;;;;;41.08;22.45;;;;;;;1.01;100.00;97570.38;4899152;29;20052;-48
2020/12/29 03:01:54;;;;;;;47.65;25.80;;;;;;;0.67;100.00;97571.63;4903041;29;20048;-47
2020/12/29 03:04:20;;;;;;;49.03;26.73;;;;;;;0.58;100.00;97574.84;4900720;29;20091;-45
2020/12/29 03:06:47;;;;;;;54.83;27.10;;;;;;;0.50;100.00;97567.16;4900628;29;20056;-47
2020/12/29 03:09:14;;;;;;;58.50;29.23;;;;;;;0.40;100.00;97562.81;4901255;29;20059;-47
2020/12/29 03:11:42;;;;;;;55.53;27.27;;;;;;;0.42;100.00;97555.31;4899771;29;20081;-46
2020/12/29 03:14:09;;;;;;;57.20;28.65;;;;;;;0.34;100.00;97556.88;4901562;29;20060;-49
2020/12/29 03:16:36;;;;;;;51.13;26.73;;;;;;;1.02;100.00;97567.06;4899524;29;20120;-50
2020/12/29 03:19:20;;;;;;;44.08;25.20;;;;;;;0.72;100.00;97568.34;4901962;29;20068;-47
2020/12/29 03:21:47;;;;;;;45.78;24.67;;;;;;;0.88;100.00;97566.00;4899268;29;20052;-48
2020/12/29 03:24:14;;;;;;;48.70;24.00;;;;;;;1.31;100.00;97580.03;4900718;29;20052;-45
2020/12/29 03:26:41;;;;;;;41.22;23.35;;;;;;;1.40;100.00;97590.22;4899790;29;20076;-46
2020/12/29 03:29:07;;;;;;;37.85;22.17;;;;;;;1.41;100.00;97594.41;4902242;29;20170;-52
2020/12/29 03:31:38;;;;;;;35.85;21.90;;;;;;;1.36;100.00;97596.03;4898861;29;20140;-47
2020/12/29 03:34:04;;;;;;;39.65;22.92;;;;;;;0.84;100.00;97612.16;4901972;29;20055;-48
2020/12/29 03:36:34;;;;;;;42.78;24.30;;;;;;;1.11;100.00;97616.69;4897907;29;20124;-49
2020/12/29 03:39:01;;;;;;;43.15;23.13;;;;;;;1.39;100.00;97628.84;4899829;29;20111;-45
2020/12/29 03:41:27;;;;;;;40.60;23.58;;;;;;;1.26;100.00;97632.88;4898723;29;20060;-48
2020/12/29 03:43:54;;;;;;;37.13;22.52;;;;;;;1.62;100.00;97636.69;4901757;29;20582;-49
2020/12/29 03:46:20;;;;;;;35.92;21.38;;;;;;;1.52;100.00;97629.81;4899250;29;20049;-45
2020/12/29 03:48:46;;;;;;;36.25;21.00;;;;;;;1.59;100.00;97616.47;4900322;29;20075;-45
2020/12/29 03:51:13;;;;;;;37.20;21.30;;;;;;;1.46;100.00;97615.47;4900802;29;20573;-50
2020/12/29 03:53:39;;;;;;;36.78;21.80;;;;;;;1.34;100.00;97622.91;4899097;29;20082;-46
2020/12/29 03:56:05;;;;;;;37.58;21.55;;;;;;;1.72;100.00;97632.59;4902118;29;20060;-50
2020/12/29 03:58:32;;;;;;;39.47;20.55;;;;;;;1.51;99.25;97631.50;4898231;29;20051;-49
2020/12/29 04:00:58;;;;;;;37.75;21.55;;;;;;;1.91;99.08;97623.53;4902525;29;20060;-44
2020/12/29 04:03:25;;;;;;;34.42;19.70;;;;;;;1.82;98.20;97626.81;4898196;29;20053;-49
2020/12/29 04:05:51;;;;;;;36.08;20.70;;;;;;;1.48;99.33;97630.66;4900973;29;20627;-51
2020/12/29 04:08:18;;;;;;;38.25;21.52;;;;;;;1.69;99.29;97625.00;4899412;29;20102;-50
2020/12/29 04:10:44;;;;;;;43.28;21.17;;;;;;;1.60;98.99;97623.19;4900016;29;20076;-49
2020/12/29 04:13:10;;;;;;;45.05;22.00;;;;;;;1.69;98.98;97617.41;4900942;29;20111;-47
2020/12/29 04:15:37;;;;;;;37.28;21.30;;;;;;;1.85;98.62;97621.81;4899567;29;20052;-47
2020/12/29 04:18:03;;;;;;;38.45;22.00;;;;;;;1.52;99.89;97629.81;4904021;29;20053;-51
2020/12/29 04:20:29;;;;;;;34.70;20.98;;;;;;;1.62;99.34;97620.69;4898215;29;20053;-48
2020/12/29 04:22:56;;;;;;;36.28;21.00;;;;;;;1.63;99.35;97602.22;4901834;29;20115;-50
2020/12/29 04:25:22;;;;;;;38.15;20.80;;;;;;;1.74;98.89;97603.19;4898421;29;20055;-47
2020/12/29 04:27:49;;;;;;;36.17;21.77;;;;;;;1.51;99.14;97595.38;4900196;29;20104;-50
2020/12/29 04:30:15;;;;;;;33.08;22.08;;;;;;;1.47;99.71;97601.19;4899872;29;20098;-48
2020/12/29 04:32:42;;;;;;;37.92;22.67;;;;;;;1.24;99.75;97599.25;4899434;29;20107;-52
2020/12/29 04:35:08;;;;;;;39.42;22.85;;;;;;;0.88;100.00;97608.81;4900991;29;20838;-46
2020/12/29 04:37:36;;;;;;;43.85;23.70;;;;;;;0.84;100.00;97618.03;4898813;29;20075;-47
2020/12/29 04:40:05;;;;;;;42.15;23.48;;;;;;;0.74;100.00;97616.22;4901693;29;20111;-47
2020/12/29 04:42:32;;;;;;;41.95;22.80;;;;;;;0.87;100.00;97625.63;4898184;29;20052;-47
2020/12/29 04:44:58;;;;;;;41.78;23.23;;;;;;;1.18;100.00;97634.44;4901944;29;20060;-52
2020/12/29 04:47:29;;;;;;;43.20;23.63;;;;;;;1.07;100.00;97632.63;4895254;29;20129;-49
2020/12/29 04:49:57;;;;;;;36.40;21.98;;;;;;;0.79;100.00;97627.19;4901230;29;20392;-49
2020/12/29 04:52:23;;;;;;;40.63;23.02;;;;;;;1.25;100.00;97632.88;4902104;29;20108;-52
2020/12/29 04:54:54;;;;;;;43.30;23.10;;;;;;;1.17;99.24;97625.19;4903842;29;20052;-47
2020/12/29 04:57:23;;;;;;;39.90;22.80;;;;;;;1.17;99.25;97616.81;4903728;29;20107;-46
2020/12/29 04:59:54;;;;;;;39.97;22.23;;;;;;;1.06;99.41;97614.13;4904141;29;20080;-49
2020/12/29 05:02:20;;;;;;;46.70;23.83;;;;;;;0.89;100.00;97611.38;4902020;29;20056;-49
2020/12/29 05:04:47;;;;;;;44.92;26.13;;;;;;;0.91;100.00;97612.25;4903585;29;20081;-47
2020/12/29 05:07:14;;;;;;;44.88;24.77;;;;;;;0.86;100.00;97611.34;4903181;29;20051;-52
2020/12/29 05:09:43;;;;;;;49.40;25.88;;;;;;;0.45;100.00;97621.63;4902530;29;20045;-48
2020/12/29 05:12:10;;;;;;;51.30;25.75;;;;;;;0.28;100.00;97632.22;4904220;29;20537;-46
2020/12/29 05:14:37;;;;;;;50.17;26.23;;;;;;;0.27;100.00;97650.66;4902039;29;20056;-46
2020/12/29 05:17:03;;;;;;;47.47;24.85;;;;;;;0.21;100.00;97654.78;4904685;29;20463;-49
2020/12/29 05:19:33;;;;;;;44.92;24.92;;;;;;;0.57;100.00;97658.75;4901599;29;20052;-51
2020/12/29 05:21:59;;;;;;;48.20;26.08;;;;;;;0.19;100.00;97658.09;4902913;29;20080;-47
2020/12/29 05:24:26;;;;;;;46.78;24.98;;;;;;;0.16;100.00;97668.94;4904892;29;20049;-48
2020/12/29 05:27:00;;;;;;;46.03;23.88;;;;;;;0.49;100.00;97668.69;4903660;29;20495;-48
2020/12/29 05:29:29;;;;;;;44.80;23.83;;;;;;;0.72;100.00;97676.59;4904783;29;20052;-51
2020/12/29 05:31:56;;;;;;;45.20;24.40;;;;;;;0.62;100.00;97673.91;4902151;29;20546;-45
2020/12/29 05:34:25;;;;;;;44.58;22.90;;;;;;;0.77;100.00;97677.50;4893039;29;20072;-48
2020/12/29 05:36:54;;;;;;;42.03;22.48;;;;;;;0.86;100.00;97670.94;4903527;29;20134;-50
2020/12/29 05:39:22;;;;;;;43.20;23.92;;;;;;;0.82;99.75;97679.25;4901882;29;20048;-44
2020/12/29 05:41:52;;;;;;;43.67;24.63;;;;;;;0.62;99.64;97678.97;4903089;29;20082;-45
2020/12/29 05:44:30;;;;;;;46.88;26.27;;;;;;;0.31;100.00;97687.66;4901484;29;20123;-46
2020/12/29 05:46:59;;;;;;;50.30;25.52;;;;;;;0.46;100.00;97693.81;4904627;29;20056;-52
2020/12/29 05:49:27;;;;;;;44.80;23.80;;;;;;;0.61;100.00;97699.94;4904733;29;20056;-45
2020/12/29 05:51:55;;;;;;;42.60;23.42;;;;;;;0.79;100.00;97699.34;4903820;29;20072;-50
2020/12/29 05:54:24;;;;;;;44.63;23.05;;;;;;;0.74;99.70;97701.81;4901144;29;20456;-51
2020/12/29 05:56:51;;;;;;;45.92;22.75;;;;;;;0.79;99.71;97697.69;4902795;29;20053;-47
2020/12/29 05:59:19;;;;;;;43.00;23.52;;;;;;;0.79;99.68;97704.38;4902206;29;20564;-49
2020/12/29 06:01:50;;;;;;;45.67;23.52;;;;;;;0.71;100.00;97702.59;4902185;29;20077;-50
2020/12/29 06:04:18;;;;;;;45.10;23.73;;;;;;;0.60;100.00;97709.16;4900380;29;20566;-49
2020/12/29 06:06:49;;;;;;;44.88;24.67;;;;;;;0.54;100.00;97710.69;4901972;29;20080;-47
2020/12/29 06:09:18;;;;;;;46.00;23.40;;;;;;;0.74;100.00;97716.94;4900427;29;20047;-48
2020/12/29 06:11:47;;;;;;;49.95;25.00;;;;;;;0.63;100.00;97706.66;4901412;29;20179;-44
2020/12/29 06:14:16;;;;;;;44.90;23.55;;;;;;;0.68;100.00;97715.13;4901311;29;20051;-46
2020/12/29 06:16:44;;;;;;;41.95;22.77;;;;;;;0.67;100.00;97713.44;4900486;29;20059;-50
2020/12/29 06:19:21;;;;;;;45.53;23.58;;;;;;;0.51;100.00;97714.03;4901801;29;20115;-52
2020/12/29 06:22:06;;;;;;;44.58;23.23;;;;;;;0.59;100.00;97711.63;4901360;29;20057;-52
2020/12/29 06:24:35;;;;;;;41.60;23.30;;;;;;;0.65;100.00;97715.09;4899104;29;20051;-51
2020/12/29 06:27:04;;;;;;;42.05;23.02;;;;;;;0.62;100.00;97707.50;4903306;29;20052;-49
2020/12/29 06:29:34;;;;;;;44.95;23.50;;;;;;;0.69;100.00;97711.81;4899246;29;20155;-50
2020/12/29 06:32:28;;;;;;;40.50;22.50;;;;;;;0.69;99.81;97711.81;4901964;29;20503;-49
2020/12/29 06:34:55;;;;;;;45.25;23.17;;;;;;;0.65;99.89;97715.09;4900583;29;20046;-45
2020/12/29 06:37:34;;;;;;;44.88;22.70;;;;;;;0.60;99.96;97715.81;4900204;29;20060;-49
2020/12/29 06:40:06;;;;;;;41.60;22.58;;;;;;;0.57;100.00;97714.13;4901849;29;20229;-49
2020/12/29 06:42:38;;;;;;;43.38;23.13;;;;;;;0.57;100.00;97723.34;4899879;29;20084;-51
2020/12/29 06:45:09;;;;;;;43.35;22.95;;;;;;;0.53;100.00;97729.16;4902022;29;20139;-51
2020/12/29 06:47:43;;;;;;;45.65;23.17;;;;;;;0.46;100.00;97738.25;4900296;29;20084;-52
2020/12/29 06:50:29;;;;;;;47.30;23.20;;;;;;;0.48;100.00;97739.97;4903004;29;20607;-49
2020/12/29 06:53:05;;;;;;;42.92;23.73;;;;;;;0.16;100.00;97746.09;4903298;29;20044;-50
2020/12/29 06:55:36;;;;;;;40.55;22.92;;;;;;;0.39;100.00;97746.50;4899684;29;20112;-50
2020/12/29 06:58:04;;;;;;;39.78;22.35;;;;;;;0.00;100.00;97755.03;4901256;29;20092;-46
2020/12/29 07:00:34;;;;;;;42.25;22.10;;;;;;;0.12;100.00;97754.38;4899445;29;20539;-51
2020/12/29 07:03:02;;;;;;;41.75;21.30;;;;;;;-0.08;100.00;97761.56;4901050;29;20660;-49
2020/12/29 07:05:30;;;;;;;38.67;20.70;;;;;;;-0.08;100.00;97764.91;4899473;29;20113;-51
2020/12/29 07:08:04;;;;;;;41.25;21.23;;;;;;;-0.31;100.00;97768.63;4901078;29;20055;-49
2020/12/29 07:10:41;;;;;;;38.67;21.13;;;;;;;-0.29;100.00;97777.88;4902426;29;20055;-47
2020/12/29 07:13:11;;;;;;;37.65;21.13;;;;;;;-0.24;100.00;97783.00;4901942;29;20056;-45
2020/12/29 07:15:48;;;;;;;38.92;21.25;;;;;;;-0.02;100.00;97776.75;4899282;29;20459;-47
2020/12/29 07:18:21;;;;;;;34.75;20.20;;;;;;;-0.27;100.00;97791.34;4901715;29;20867;-49
2020/12/29 07:20:50;;;;;;;38.58;21.42;;;;;;;-0.52;100.00;97787.41;4901583;29;20056;-46
2020/12/29 07:23:18;;;;;;;41.05;21.58;;;;;;;-0.66;100.00;97796.31;4900594;29;20210;-48
2020/12/29 07:25:47;;;;;;;44.97;21.45;;;;;;;-0.61;100.00;97802.28;4907798;29;20511;-46
2020/12/29 07:28:18;;;;;;;55.30;24.92;;;;;;;-0.70;100.00;97804.59;4902713;29;20055;-45
2020/12/29 07:30:44;;;;;;;50.30;25.30;;;;;;;-0.47;100.00;97809.28;4900292;29;20396;-44
2020/12/29 07:33:11;;;;;;;56.97;27.67;;;;;;;-0.82;100.00;97810.19;4901008;29;20064;-49
2020/12/29 07:35:39;;;;;;;64.78;29.98;;;;;;;-0.89;100.00;97813.34;4898864;29;20052;-46
2020/12/29 07:38:21;;;;;;;62.00;27.00;;;;;;;-0.80;100.00;97817.75;4903678;29;20051;-46
2020/12/29 07:40:47;;;;;;;54.42;25.67;;;;;;;-0.77;100.00;97816.16;4899272;29;20040;-49
2020/12/29 07:43:14;;;;;;;54.70;26.02;;;;;;;-0.62;100.00;97825.72;4901017;29;20107;-45
2020/12/29 07:45:41;;;;;;;61.88;28.17;;;;;;;-0.83;100.00;97817.69;4898925;29;20052;-44
2020/12/29 07:48:07;;;;;;;60.95;27.63;;;;;;;-0.56;100.00;97817.47;4900796;29;20119;-49
2020/12/29 07:50:37;;;;;;;57.42;27.45;;;;;;;-0.89;100.00;97820.88;4899216;29;20052;-46
2020/12/29 07:53:04;;;;;;;53.28;25.83;;;;;;;-0.22;100.00;97826.63;4902177;29;20112;-45
2020/12/29 07:55:32;;;;;;;55.08;26.65;;;;;;;-0.46;100.00;97831.97;4898697;29;20052;-47
2020/12/29 07:58:03;;;;;;;48.67;25.23;;;;;;;-0.37;100.00;97832.19;4900334;29;20063;-44
2020/12/29 08:00:31;;;;;;;41.20;23.83;;;;;;;-0.25;100.00;97831.59;4898830;29;20860;-49
2020/12/29 08:02:57;;;;;;;43.08;22.55;;;;;;;-0.16;100.00;97838.47;4900208;29;20052;-46
2020/12/29 08:05:26;;;;;;;44.92;25.25;;;;;;;-0.07;100.00;97843.72;4899938;29;20131;-47
2020/12/29 08:07:58;;;;;;;46.08;24.75;;;;;;;-0.29;100.00;97833.19;4901959;29;20875;-44
2020/12/29 08:10:30;;;;;;;40.83;22.20;;;;;;;0.14;100.00;97843.28;4902028;29;20456;-44
2020/12/29 08:12:58;;;;;;;43.85;23.30;;;;;;;-0.12;100.00;97846.13;4904516;29;20127;-50
2020/12/29 08:15:42;;;;;;;50.38;24.77;;;;;;;-0.37;100.00;97858.94;4904623;29;20052;-47
2020/12/29 08:18:13;;;;;;;43.85;23.15;;;;;;;-0.24;100.00;97858.41;4900648;29;20052;-47
2020/12/29 08:20:57;;;;;;;47.78;23.70;;;;;;;0.03;100.00;97854.81;4899778;29;20052;-52
2020/12/29 08:23:28;;;;;;;42.40;23.17;;;;;;;0.11;100.00;97879.31;4900233;29;20471;-48
2020/12/29 08:25:59;;;;;;;41.92;22.40;;;;;;;0.08;100.00;97889.31;4903384;29;20040;-48
2020/12/29 08:28:28;;;;;;;41.25;22.75;;;;;;;0.69;100.00;97887.19;4906517;29;20080;-49
2020/12/29 08:30:55;;;;;;;41.20;24.02;;;;;;;-0.04;100.00;97892.41;4908519;29;20060;-49
2020/12/29 08:33:23;;;;;;;37.08;21.80;;;;;;;-0.09;100.00;97890.63;4907023;29;20052;-50
2020/12/29 08:35:55;;;;;;;42.60;23.42;;;;;;;0.13;100.00;97894.44;4907431;29;20064;-46
2020/12/29 08:38:30;;;;;;;42.60;24.58;;;;;;;0.45;100.00;97897.63;4902159;29;20060;-48
2020/12/29 08:41:10;;;;;;;43.85;23.95;;;;;;;0.51;100.00;97905.31;4907502;29;20056;-44
2020/12/29 08:43:48;;;;;;;40.80;24.50;;;;;;;0.77;98.40;97909.19;4907287;29;20100;-45
2020/12/29 08:46:21;;;;;;;43.72;22.45;;;;;;;0.67;98.45;97924.94;4903680;29;20142;-52
2020/12/29 08:49:08;;;;;;;37.42;21.48;;;;;;;0.71;98.88;97928.38;4903124;29;20052;-47
2020/12/29 08:51:40;;;;;;;42.85;23.52;;;;;;;0.07;100.00;97927.00;4901621;29;20180;-43
2020/12/29 08:54:10;;;;;;;47.53;24.30;;;;;;;-0.17;100.00;97932.34;4905146;29;20196;-47
2020/12/29 08:56:38;;;;;;;47.70;24.58;;;;;;;-0.11;100.00;97950.91;4902095;29;20417;-48
2020/12/29 08:59:12;;;;;;;43.65;24.95;;;;;;;0.46;100.00;97953.06;4907328;29;20059;-46
2020/12/29 09:01:40;;;;;;;41.20;22.05;;;;;;;1.20;99.62;97962.03;4901811;29;20109;-45
2020/12/29 09:04:40;;;;;;;38.67;21.52;;;;;;;1.68;96.96;97961.22;4901184;29;20515;-48
2020/12/29 09:07:09;;;;;;;32.50;19.33;;;;;;;1.73;95.92;97970.56;4902382;29;20063;-48
2020/12/29 09:09:36;;;;;;;30.98;19.20;;;;;;;2.44;92.79;97976.69;4901486;29;20056;-47
2020/12/29 09:12:11;;;;;;;24.95;15.60;;;;;;;3.30;86.40;97981.13;4905063;29;20114;-45
2020/12/29 09:14:38;;;;;;;25.52;15.25;;;;;;;4.12;84.60;97980.19;4901974;29;20048;-45
2020/12/29 09:17:07;;;;;;;21.90;14.98;;;;;;;4.51;80.57;97985.50;4904587;29;20123;-43
2020/12/29 09:19:34;;;;;;;24.30;13.90;;;;;;;6.27;74.22;97990.22;4901452;29;20495;-44
2020/12/29 09:22:11;;;;;;;22.23;14.18;;;;;;;6.51;72.29;97996.97;4903993;29;20475;-46
2020/12/29 09:24:56;;;;;;;21.10;13.43;;;;;;;7.85;65.88;98001.47;4908319;29;20055;-50
2020/12/29 09:27:32;;;;;;;20.10;14.00;;;;;;;7.01;67.79;97999.38;4904883;29;20049;-46
2020/12/29 09:30:11;;;;;;;19.95;12.60;;;;;;;6.75;71.08;98006.22;4916715;29;20391;-47
2020/12/29 09:32:38;;;;;;;16.58;12.35;;;;;;;8.27;64.92;98001.16;4900899;29;20475;-48
2020/12/29 09:35:27;;;;;;;18.55;13.40;;;;;;;7.21;67.76;98001.88;4917956;29;20068;-46
2020/12/29 09:37:57;;;;;;;19.92;13.15;;;;;;;5.85;73.31;98009.66;4913727;29;20044;-48
2020/12/29 09:40:24;;;;;;;21.35;13.70;;;;;;;5.73;73.82;97994.41;4916533;29;20080;-51
2020/12/29 09:42:51;;;;;;;21.60;13.77;;;;;;;4.59;77.40;98000.75;4918746;29;20056;-49
2020/12/29 09:45:22;;;;;;;21.20;13.57;;;;;;;2.60;87.66;97998.81;4917092;29;20690;-46
2020/12/29 09:47:49;;;;;;;30.80;18.95;;;;;;;2.60;88.59;98000.47;4905793;29;20052;-48
2020/12/29 09:50:17;;;;;;;29.40;18.83;;;;;;;2.29;91.52;97993.31;4906408;29;20054;-48
2020/12/29 09:52:43;;;;;;;27.77;18.30;;;;;;;2.14;92.63;97994.75;4899504;29;20109;-49
2020/12/29 09:55:10;;;;;;;28.63;17.58;;;;;;;2.48;92.07;98006.19;4909672;29;20056;-49
2020/12/29 09:57:36;;;;;;;23.90;15.00;;;;;;;2.91;88.76;98004.25;4899360;29;20048;-47
2020/12/29 10:00:05;;;;;;;21.23;14.80;;;;;;;2.59;88.89;98001.28;4902346;29;20586;-48
2020/12/29 10:02:31;;;;;;;22.48;14.70;;;;;;;2.55;91.10;98011.38;4900071;29;20060;-44
2020/12/29 10:04:57;;;;;;;25.58;15.43;;;;;;;2.26;90.95;98015.13;4901806;29;20044;-43
2020/12/29 10:07:24;;;;;;;26.55;15.20;;;;;;;2.22;91.77;98015.94;4901712;29;20745;-50
2020/12/29 10:09:51;;;;;;;24.20;14.18;;;;;;;2.71;90.20;98014.94;4909936;29;20052;-46
2020/12/29 10:12:18;;;;;;;23.38;14.45;;;;;;;2.95;87.91;98018.63;4902827;29;20052;-48
2020/12/29 10:14:45;;;;;;;25.30;15.07;;;;;;;2.73;89.63;98017.50;4899843;29;20630;-49
2020/12/29 10:17:11;;;;;;;22.27;14.52;;;;;;;3.01;89.67;98024.63;4900522;29;20142;-43
2020/12/29 10:19:38;;;;;;;23.38;13.85;;;;;;;3.49;86.92;98040.34;4899350;29;20052;-44
2020/12/29 10:22:04;;;;;;;23.50;14.35;;;;;;;3.48;85.66;98031.06;4901580;29;20499;-47
2020/12/29 10:24:31;;;;;;;21.15;14.15;;;;;;;3.69;85.82;98031.25;4899871;29;20048;-49
2020/12/29 10:26:57;;;;;;;22.80;13.68;;;;;;;3.83;85.27;98033.91;4904329;29;20503;-46
2020/12/29 10:29:25;;;;;;;19.42;13.38;;;;;;;4.31;82.49;98042.78;4901050;29;20562;-48
2020/12/29 10:31:51;;;;;;;21.48;13.48;;;;;;;4.13;82.58;98053.63;4900508;29;20503;-51
2020/12/29 10:34:18;;;;;;;23.10;14.07;;;;;;;3.51;85.34;98041.19;4902108;29;20051;-46
2020/12/29 10:36:45;;;;;;;21.15;13.63;;;;;;;3.62;85.32;98052.28;4902882;29;20124;-44
2020/12/29 10:39:12;;;;;;;22.08;13.82;;;;;;;4.11;83.29;98046.84;4900639;29;20119;-45
2020/12/29 10:41:43;;;;;;;18.40;12.25;;;;;;;3.98;82.20;98056.88;4899020;29;20600;-48
2020/12/29 10:44:10;;;;;;;23.35;14.77;;;;;;;3.46;86.57;98063.91;4903957;29;20059;-45
2020/12/29 10:46:37;;;;;;;21.48;13.48;;;;;;;3.74;84.87;98051.53;4899206;29;20051;-46
2020/12/29 10:49:04;;;;;;;21.05;13.27;;;;;;;3.06;88.63;98053.31;4900503;29;20063;-44
2020/12/29 10:51:31;;;;;;;18.45;13.05;;;;;;;2.91;88.91;98055.66;4898438;29;20226;-44
2020/12/29 10:53:57;;;;;;;22.42;13.15;;;;;;;3.49;88.12;98068.16;4900216;29;20539;-48
2020/12/29 10:56:24;;;;;;;20.23;12.68;;;;;;;3.82;85.01;98063.44;4903774;29;20127;-46
2020/12/29 10:58:50;;;;;;;21.05;12.85;;;;;;;3.39;87.61;98064.69;4900173;29;20048;-47
2020/12/29 11:01:23;;;;;;;21.63;14.43;;;;;;;3.01;87.63;98060.00;4898942;29;20052;-46
2020/12/29 11:03:50;;;;;;;20.50;12.88;;;;;;;3.19;88.74;98063.56;4900246;29;20048;-45
2020/12/29 11:06:21;;;;;;;21.88;14.18;;;;;;;3.44;89.28;98060.50;4906623;29;20554;-45
2020/12/29 11:08:50;;;;;;;20.13;13.13;;;;;;;3.60;87.31;98061.53;4913686;29;20044;-46
2020/12/29 11:11:18;;;;;;;19.08;12.98;;;;;;;4.49;84.89;98060.66;4895896;29;20052;-48
2020/12/29 11:13:45;;;;;;;20.98;13.68;;;;;;;4.04;85.65;98066.19;4897037;29;20081;-48
2020/12/29 11:16:19;;;;;;;19.33;12.13;;;;;;;4.46;83.31;98077.53;4897888;29;20091;-49
2020/12/29 11:18:46;;;;;;;18.95;12.57;;;;;;;4.77;83.68;98086.19;4903149;29;20059;-49
2020/12/29 11:21:18;;;;;;;19.60;13.50;;;;;;;4.17;86.04;98082.34;4910262;29;20060;-52
2020/12/29 11:23:45;;;;;;;16.27;11.13;;;;;;;4.90;80.96;98087.97;4913473;29;20043;-47
2020/12/29 11:26:17;;;;;;;16.95;11.70;;;;;;;5.30;79.32;98086.47;4917367;29;20051;-52
2020/12/29 11:28:44;;;;;;;17.63;12.10;;;;;;;4.94;81.51;98089.66;4918414;29;20485;-48